Burna, Kentucky
Current Conditions -  °F | °C
As of 10:35 AM on Friday 31 Oct 2014 (Local Time) from K5M9 Reporting Station
Overcast Overcast  
Wind Chill: 43°   Ceiling: 2100
Heat Index: 48°   Visibility: 10mi
Dew Point: 42°   Wind: 12mph
Humidity: 78%   Direction: 350°N
Pressure: 30.09"   Gusts: 20mph
Location:  37.25°N, 88.36°W
Report Text: K5M9 311535Z AUTO 35010G17KT 320V020 10SM BKN021 BKN029 OVC038 09/05 A3009 RMK AO2 T00900054
Loading
Personal Weather Stations






























Interactive Weather Map
Tropical Storm Tracking
New forecast layout! Learn more

10-Day Weather Forecast

Advertisements
Track Severe Weather on mobile